Rula Bula — WDH8533 — position and weather

sailwx.info

Track history (hours):
 
Tides and Currents Weather Stations Pressure Air Temp Water Temp Dewpoint Dewpoint Depression Visibility Wind Speed Wind Dir Waves Ship Positions

Rula Bula

Owner: Ioffredo, Lawrence, Chatam, NJ. More information available from US FCC via Universal Licensing System and Coast Guard Vessel Documentation Center.

Last reported at 2017-Nov-16 16:26 UTC. Time now 2017-Nov-24 20:46 UTC.
Position N 25°43' W 080°09'.
Warning: this ship's position is 8 days out of date.

Length 17 m.

Type: Sailing vessel. MMSI: 367658970.

Date/timePositionNaut miles runAvg speedWind from/ knotsBaromVisibWave heightAir tempDewpointWater temp
2017-Nov-16 16:26N 25°43' W 080°09'1 3.2
2017-Nov-16 16:00N 25°44' W 080°11'3 5.1
2017-Nov-16 15:29N 25°46' W 080°12'1 2.1
2017-Nov-16 14:59N 25°47' W 080°13'0 0.1
2017-Nov-16 14:29N 25°47' W 080°13'0 0.0
2017-Nov-15 14:54N 25°47' W 080°13'0 0.7
2017-Nov-15 14:30N 25°47' W 080°12'1 2.1
2017-Nov-15 14:00N 25°46' W 080°11'1 1.4
2017-Nov-15 13:30N 25°46' W 080°11'1 2.9
2017-Nov-15 13:00N 25°44' W 080°11'1 3.0
2017-Nov-15 12:30N 25°43' W 080°09'  
2017-Nov-11 23:54N 25°43' W 080°09'1 3.1
2017-Nov-11 23:30N 25°43' W 080°11'3 5.0
2017-Nov-11 22:59N 25°40' W 080°11'2 4.6
2017-Nov-11 22:30N 25°41' W 080°14'2 4.7
2017-Nov-11 22:00N 25°38' W 080°14'7 2.0
2017-Nov-11 18:41N 25°32' W 080°12'1 4.4
2017-Nov-11 18:29N 25°32' W 080°13'3 6.5
2017-Nov-11 18:00N 25°36' W 080°12'3 6.5
2017-Nov-11 17:30N 25°39' W 080°12'3 6.1
2017-Nov-11 17:00N 25°42' W 080°11'2 4.9
2017-Nov-11 16:30N 25°43' W 080°09'  
Track history (hours):
 
Tides and Currents Weather Stations Pressure Air Temp Water Temp Dewpoint Dewpoint Depression Visibility Wind Speed Wind Dir Waves Ship Positions

Rula Bula

Owner: Ioffredo, Lawrence, Chatam, NJ. More information available from US FCC via Universal Licensing System and Coast Guard Vessel Documentation Center.

Last reported at 2017-Nov-16 16:26 UTC. Time now 2017-Nov-24 20:46 UTC.
Position N 25°43' W 080°09'.
Warning: this ship's position is 8 days out of date.

Length 17 m.

Type: Sailing vessel. MMSI: 367658970.

Date/timePositionNaut miles runAvg speedWind from/ knotsBaromVisibWave heightAir tempDewpointWater temp
2017-Nov-16 16:26N 25°43' W 080°09'1 3.2
2017-Nov-16 16:00N 25°44' W 080°11'3 5.1
2017-Nov-16 15:29N 25°46' W 080°12'1 2.1
2017-Nov-16 14:59N 25°47' W 080°13'0 0.1
2017-Nov-16 14:29N 25°47' W 080°13'0 0.0
2017-Nov-15 14:54N 25°47' W 080°13'0 0.7
2017-Nov-15 14:30N 25°47' W 080°12'1 2.1
2017-Nov-15 14:00N 25°46' W 080°11'1 1.4
2017-Nov-15 13:30N 25°46' W 080°11'1 2.9
2017-Nov-15 13:00N 25°44' W 080°11'1 3.0
2017-Nov-15 12:30N 25°43' W 080°09'  
2017-Nov-11 23:54N 25°43' W 080°09'1 3.1
2017-Nov-11 23:30N 25°43' W 080°11'3 5.0
2017-Nov-11 22:59N 25°40' W 080°11'2 4.6
2017-Nov-11 22:30N 25°41' W 080°14'2 4.7
2017-Nov-11 22:00N 25°38' W 080°14'7 2.0
2017-Nov-11 18:41N 25°32' W 080°12'1 4.4
2017-Nov-11 18:29N 25°32' W 080°13'3 6.5
2017-Nov-11 18:00N 25°36' W 080°12'3 6.5
2017-Nov-11 17:30N 25°39' W 080°12'3 6.1
2017-Nov-11 17:00N 25°42' W 080°11'2 4.9
2017-Nov-11 16:30N 25°43' W 080°09'  

Dump ship's entire track history